Time,TemperatureF,DewpointF,PressureIn,WindDirection,WindDirectionDegrees,WindSpeedMPH,WindSpeedGustMPH,Humidity,HourlyPrecipIn,Conditions,Clouds,dailyrainin,SoftwareType,DateUTC
2013-07-03 00:04:00,77.0,73.0,29.97,SSW,196,5.0,9.0,86,0.00,,,0.00,weatherlink.com 1.10,2013-07-03 05:04:00,
2013-07-03 00:19:00,76.3,72.0,29.97,SSW,194,2.0,9.0,87,0.00,,,0.00,weatherlink.com 1.10,2013-07-03 05:19:00,
2013-07-03 00:34:00,76.2,73.0,29.96,SSW,203,4.0,8.0,88,0.00,,,0.00,weatherlink.com 1.10,2013-07-03 05:34:00,
2013-07-03 00:49:00,76.3,72.0,29.97,South,188,5.0,8.0,87,0.00,,,0.00,weatherlink.com 1.10,2013-07-03 05:49:00,
2013-07-03 01:34:00,76.1,72.0,29.97,SSW,194,5.0,8.0,87,0.00,,,0.00,weatherlink.com 1.10,2013-07-03 06:34:00,
2013-07-03 02:19:00,76.2,73.0,29.96,South,179,4.0,9.0,88,0.00,,,0.00,weatherlink.com 1.10,2013-07-03 07:19:00,
2013-07-03 02:34:00,76.4,72.0,29.95,SSW,198,5.0,9.0,87,0.00,,,0.00,weatherlink.com 1.10,2013-07-03 07:34:00,
2013-07-03 02:49:00,76.1,72.0,29.95,SSW,198,7.0,9.0,87,0.00,,,0.00,weatherlink.com 1.10,2013-07-03 07:49:00,
2013-07-03 03:19:00,75.7,72.0,29.96,SSW,198,5.0,8.0,88,0.00,,,0.00,weatherlink.com 1.10,2013-07-03 08:19:00,
2013-07-03 03:34:00,75.5,72.0,29.96,South,186,6.0,8.0,88,0.00,,,0.00,weatherlink.com 1.10,2013-07-03 08:34:00,
2013-07-03 03:49:00,75.4,71.0,29.95,SSW,202,6.0,9.0,87,0.00,,,0.00,weatherlink.com 1.10,2013-07-03 08:49:00,
2013-07-03 04:04:00,75.3,71.0,29.95,SSW,196,2.0,6.0,85,0.00,,,0.00,weatherlink.com 1.10,2013-07-03 09:04:00,
2013-07-03 04:19:00,75.2,71.0,29.95,SSW,193,6.0,7.0,85,0.00,,,0.00,weatherlink.com 1.10,2013-07-03 09:19:00,
2013-07-03 04:34:00,74.9,70.0,29.94,SSW,198,3.0,8.0,84,0.00,,,0.00,weatherlink.com 1.10,2013-07-03 09:34:00,
2013-07-03 05:19:00,74.7,70.0,29.94,SW,227,5.0,6.0,85,0.00,,,0.00,weatherlink.com 1.10,2013-07-03 10:19:00,
2013-07-03 05:49:00,76.9,70.0,29.94,SW,235,0.0,7.0,79,0.00,,,0.00,weatherlink.com 1.10,2013-07-03 10:49:00,
2013-07-03 06:19:00,76.7,69.0,29.94,WSW,244,0.0,5.0,78,0.00,,,0.00,weatherlink.com 1.10,2013-07-03 11:19:00,
2013-07-03 06:34:00,76.3,69.0,29.94,WSW,250,2.0,6.0,79,0.00,,,0.00,weatherlink.com 1.10,2013-07-03 11:34:00,
2013-07-03 06:49:00,76.3,69.0,29.95,WSW,240,0.0,6.0,78,0.00,,,0.00,weatherlink.com 1.10,2013-07-03 11:49:00,
2013-07-03 07:04:00,76.4,69.0,29.95,WSW,244,0.0,5.0,78,0.00,,,0.00,weatherlink.com 1.10,2013-07-03 12:04:00,
2013-07-03 07:49:00,76.6,69.0,29.97,WSW,238,0.0,3.0,77,0.00,,,0.00,weatherlink.com 1.10,2013-07-03 12:49:00,
2013-07-03 08:04:00,77.0,69.0,29.97,SW,225,4.0,6.0,76,0.00,,,0.00,weatherlink.com 1.10,2013-07-03 13:04:00,
2013-07-03 08:20:00,77.6,69.0,29.97,WSW,255,0.0,6.0,75,0.00,,,0.00,weatherlink.com 1.10,2013-07-03 13:20:00,
2013-07-03 08:35:00,77.4,69.0,29.98,WSW,240,4.0,6.0,74,0.00,,,0.00,weatherlink.com 1.10,2013-07-03 13:35:00,
2013-07-03 09:05:00,78.4,68.0,29.98,WSW,251,6.0,7.0,71,0.00,,,0.00,weatherlink.com 1.10,2013-07-03 14:05:00,
2013-07-03 09:50:00,80.3,69.0,29.98,West,260,4.0,6.0,69,0.00,,,0.00,weatherlink.com 1.10,2013-07-03 14:50:00,
2013-07-03 10:05:00,81.1,69.0,29.99,West,278,3.0,6.0,67,0.00,,,0.00,weatherlink.com 1.10,2013-07-03 15:05:00,
2013-07-03 10:35:00,82.7,69.0,29.99,WSW,240,1.0,6.0,63,0.00,,,0.00,weatherlink.com 1.10,2013-07-03 15:35:00,
2013-07-03 10:50:00,83.1,70.0,29.99,SE,125,4.0,7.0,65,0.00,,,0.00,weatherlink.com 1.10,2013-07-03 15:50:00,
2013-07-03 11:05:00,84.5,69.0,29.99,East,98,3.0,3.0,60,0.00,,,0.00,weatherlink.com 1.10,2013-07-03 16:05:00,
2013-07-03 11:20:00,83.8,70.0,29.98,ESE,121,5.0,9.0,64,0.00,,,0.00,weatherlink.com 1.10,2013-07-03 16:20:00,
2013-07-03 11:35:00,84.3,70.0,29.98,ESE,119,4.0,6.0,63,0.00,,,0.00,weatherlink.com 1.10,2013-07-03 16:35:00,
2013-07-03 11:50:00,84.7,71.0,29.98,ESE,104,6.0,9.0,64,0.00,,,0.00,weatherlink.com 1.10,2013-07-03 16:50:00,
2013-07-03 12:05:00,85.3,69.0,29.97,SSE,165,0.0,8.0,59,0.00,,,0.00,weatherlink.com 1.10,2013-07-03 17:05:00,
2013-07-03 12:20:00,84.5,70.0,29.97,ESE,106,7.0,8.0,63,0.00,,,0.00,weatherlink.com 1.10,2013-07-03 17:20:00,
2013-07-03 12:35:00,84.1,70.0,29.97,ESE,115,6.0,10.0,63,0.00,,,0.00,weatherlink.com 1.10,2013-07-03 17:35:00,
2013-07-03 12:50:00,84.3,71.0,29.97,SE,125,5.0,9.0,64,0.00,,,0.00,weatherlink.com 1.10,2013-07-03 17:50:00,
2013-07-03 13:20:00,82.3,72.0,29.96,SE,134,6.0,14.0,70,0.00,,,0.00,weatherlink.com 1.10,2013-07-03 18:20:00,
2013-07-03 13:35:00,82.1,71.0,29.96,SE,136,12.0,16.0,70,0.00,,,0.00,weatherlink.com 1.10,2013-07-03 18:35:00,
2013-07-03 13:50:00,81.6,72.0,29.97,SSE,161,9.0,16.0,72,0.00,,,0.00,weatherlink.com 1.10,2013-07-03 18:50:00,
2013-07-03 14:05:00,82.4,73.0,29.96,ESE,111,12.0,16.0,72,0.00,,,0.00,weatherlink.com 1.10,2013-07-03 19:05:00,
2013-07-03 14:20:00,82.5,73.0,29.96,SE,137,9.0,16.0,72,0.00,,,0.00,weatherlink.com 1.10,2013-07-03 19:20:00,
2013-07-03 14:35:00,82.4,72.0,29.95,SE,133,9.0,19.0,71,0.00,,,0.00,weatherlink.com 1.10,2013-07-03 19:35:00,
2013-07-03 14:50:00,81.7,72.0,29.95,ESE,109,13.0,20.0,72,0.00,,,0.00,weatherlink.com 1.10,2013-07-03 19:50:00,
2013-07-03 15:05:00,81.2,72.0,29.94,SE,128,10.0,20.0,73,0.00,,,0.00,weatherlink.com 1.10,2013-07-03 20:05:00,
2013-07-03 15:20:00,81.6,72.0,29.94,ESE,122,13.0,20.0,73,0.00,,,0.00,weatherlink.com 1.10,2013-07-03 20:20:00,
2013-07-03 15:35:00,81.8,72.0,29.93,SE,124,13.0,16.0,72,0.00,,,0.00,weatherlink.com 1.10,2013-07-03 20:35:00,
2013-07-03 15:50:00,81.1,72.0,29.93,ESE,118,8.0,14.0,73,0.00,,,0.00,weatherlink.com 1.10,2013-07-03 20:50:00,
2013-07-03 16:20:00,81.6,73.0,29.92,ESE,111,6.0,14.0,74,0.00,,,0.00,weatherlink.com 1.10,2013-07-03 21:20:00,
2013-07-03 16:35:00,81.5,73.0,29.91,ESE,123,9.0,15.0,75,0.00,,,0.00,weatherlink.com 1.10,2013-07-03 21:35:00,
2013-07-03 17:05:00,81.9,72.0,29.90,ESE,114,15.0,16.0,73,0.00,,,0.00,weatherlink.com 1.10,2013-07-03 22:05:00,
2013-07-03 17:20:00,82.1,73.0,29.89,SE,131,13.0,16.0,74,0.00,,,0.00,weatherlink.com 1.10,2013-07-03 22:20:00,
2013-07-03 17:50:00,81.3,73.0,29.89,ESE,120,9.0,16.0,75,0.00,,,0.00,weatherlink.com 1.10,2013-07-03 22:50:00,
2013-07-03 18:20:00,82.1,72.0,29.88,SE,127,11.0,14.0,72,0.00,,,0.00,weatherlink.com 1.10,2013-07-03 23:20:00,
2013-07-03 18:50:00,82.0,73.0,29.88,SE,127,10.0,15.0,73,0.00,,,0.00,weatherlink.com 1.10,2013-07-03 23:50:00,
2013-07-03 19:21:00,80.7,73.0,29.88,ESE,119,8.0,13.0,77,0.00,,,0.00,weatherlink.com 1.10,2013-07-04 00:21:00,
2013-07-03 19:36:00,80.3,73.0,29.88,ESE,122,7.0,12.0,79,0.00,,,0.00,weatherlink.com 1.10,2013-07-04 00:36:00,
2013-07-03 19:51:00,80.1,73.0,29.88,SE,135,6.0,13.0,80,0.00,,,0.00,weatherlink.com 1.10,2013-07-04 00:51:00,
2013-07-03 20:06:00,80.0,74.0,29.88,SE,130,6.0,9.0,81,0.00,,,0.00,weatherlink.com 1.10,2013-07-04 01:06:00,
2013-07-03 20:21:00,79.8,74.0,29.88,ESE,117,6.0,10.0,81,0.00,,,0.00,weatherlink.com 1.10,2013-07-04 01:21:00,
2013-07-03 20:36:00,79.7,74.0,29.89,SE,135,8.0,11.0,82,0.00,,,0.00,weatherlink.com 1.10,2013-07-04 01:36:00,
2013-07-03 20:51:00,79.5,74.0,29.89,SE,144,6.0,10.0,83,0.00,,,0.00,weatherlink.com 1.10,2013-07-04 01:51:00,
2013-07-03 21:06:00,79.3,73.0,29.89,SE,133,5.0,12.0,82,0.00,,,0.00,weatherlink.com 1.10,2013-07-04 02:06:00,
2013-07-03 21:21:00,79.3,73.0,29.89,SE,130,6.0,11.0,82,0.00,,,0.00,weatherlink.com 1.10,2013-07-04 02:21:00,
2013-07-03 21:36:00,79.1,73.0,29.90,SE,144,7.0,9.0,82,0.00,,,0.00,weatherlink.com 1.10,2013-07-04 02:36:00,
2013-07-03 21:51:00,79.1,73.0,29.90,SE,133,10.0,10.0,82,0.00,,,0.00,weatherlink.com 1.10,2013-07-04 02:51:00,
2013-07-03 22:06:00,79.1,73.0,29.90,SE,145,7.0,11.0,82,0.00,,,0.00,weatherlink.com 1.10,2013-07-04 03:06:00,
2013-07-03 22:21:00,79.1,74.0,29.91,SE,143,6.0,12.0,83,0.00,,,0.00,weatherlink.com 1.10,2013-07-04 03:21:00,
2013-07-03 22:36:00,78.8,74.0,29.91,SE,131,8.0,10.0,84,0.00,,,0.00,weatherlink.com 1.10,2013-07-04 03:36:00,
2013-07-03 23:06:00,79.1,72.0,29.92,SSE,149,6.0,10.0,80,0.00,,,0.00,weatherlink.com 1.10,2013-07-04 04:06:00,
2013-07-03 23:21:00,79.2,73.0,29.92,SE,135,8.0,10.0,80,0.00,,,0.00,weatherlink.com 1.10,2013-07-04 04:21:00,
2013-07-03 23:36:00,79.2,73.0,29.93,SE,134,8.0,11.0,81,0.00,,,0.00,weatherlink.com 1.10,2013-07-04 04:36:00,
2013-07-03 23:51:00,79.1,73.0,29.93,SE,124,8.0,12.0,82,0.00,,,0.00,weatherlink.com 1.10,2013-07-04 04:51:00,